createdAt,value
2023-02-08T00:01:34.936Z,9.63
2023-02-08T00:04:03.169Z,10.60
2023-02-08T00:06:31.669Z,8.80
2023-02-08T00:09:01.265Z,13.27
2023-02-08T00:11:29.404Z,12.30
2023-02-08T00:13:57.525Z,11.40
2023-02-08T00:16:27.141Z,9.37
2023-02-08T00:18:56.148Z,9.10
2023-02-08T00:21:24.178Z,11.43
2023-02-08T00:23:52.485Z,13.23
2023-02-08T00:26:20.523Z,9.70
2023-02-08T00:28:48.699Z,15.03
2023-02-08T00:31:19.071Z,9.73
2023-02-08T00:33:48.784Z,10.33
2023-02-08T00:36:16.885Z,10.07
2023-02-08T00:38:44.895Z,12.13
2023-02-08T00:41:13.118Z,9.67
2023-02-08T00:43:41.205Z,9.67
2023-02-08T00:46:10.824Z,12.17
2023-02-08T00:48:38.886Z,10.53
2023-02-08T00:51:10.736Z,9.90
2023-02-08T00:53:41.236Z,8.77
2023-02-08T00:56:10.575Z,12.10
2023-02-08T00:58:39.384Z,11.03
2023-02-08T01:01:08.715Z,9.17
2023-02-08T01:03:40.727Z,11.47
2023-02-08T01:06:13.944Z,11.67
2023-02-08T01:08:41.980Z,13.57
2023-02-08T01:11:13.040Z,9.57
2023-02-08T01:13:42.073Z,8.10
2023-02-08T01:16:13.705Z,9.80
2023-02-08T01:18:44.241Z,10.50
2023-02-08T01:21:18.086Z,8.23
2023-02-08T01:23:47.009Z,8.47
2023-02-08T01:26:17.200Z,11.30
2023-02-08T01:28:46.877Z,11.43
2023-02-08T01:31:20.498Z,9.67
2023-02-08T01:33:49.365Z,10.07
2023-02-08T01:36:19.002Z,10.73
2023-02-08T01:38:49.056Z,8.53
2023-02-08T01:41:20.652Z,11.70
2023-02-08T01:44:09.165Z,11.77
2023-02-08T01:46:39.532Z,11.90
2023-02-08T01:49:12.632Z,13.07
2023-02-08T01:51:46.642Z,10.10
2023-02-08T01:54:17.572Z,11.23
2023-02-08T01:56:48.158Z,9.00
2023-02-08T01:59:22.280Z,10.80
2023-02-08T02:01:53.511Z,9.20
2023-02-08T02:04:22.447Z,9.47
2023-02-08T02:06:57.896Z,11.37
2023-02-08T02:09:32.478Z,12.30
2023-02-08T02:12:02.034Z,10.07
2023-02-08T02:14:30.824Z,10.73
2023-02-08T02:17:01.657Z,10.47
2023-02-08T02:19:41.406Z,10.43
2023-02-08T02:22:40.734Z,9.73
2023-02-08T02:25:47.779Z,10.60
2023-02-08T02:29:06.187Z,11.53
2023-02-08T02:32:00.426Z,11.83
2023-02-08T02:34:41.862Z,11.87
2023-02-08T02:37:24.743Z,12.33
2023-02-08T02:40:08.361Z,8.53
2023-02-08T02:43:15.027Z,12.37
2023-02-08T02:45:50.687Z,10.90
2023-02-08T02:48:31.785Z,9.93
2023-02-08T02:51:07.054Z,10.77
2023-02-08T02:53:44.323Z,10.83
2023-02-08T02:56:17.786Z,10.87
2023-02-08T02:58:46.729Z,7.27
2023-02-08T03:01:15.137Z,10.13
2023-02-08T03:03:44.523Z,6.87
2023-02-08T03:06:23.479Z,9.07
2023-02-08T03:09:09.544Z,10.40
2023-02-08T03:11:46.805Z,8.30
2023-02-08T03:14:31.121Z,9.17
2023-02-08T03:17:17.826Z,9.30
2023-02-08T03:19:55.749Z,10.50
2023-02-08T03:22:32.394Z,10.33
2023-02-08T03:25:07.154Z,8.83
2023-02-08T03:27:41.367Z,9.47
2023-02-08T03:30:16.954Z,7.67
2023-02-08T03:32:48.926Z,9.87
2023-02-08T03:35:24.105Z,8.00
2023-02-08T03:37:59.465Z,8.87
2023-02-08T03:40:32.931Z,11.13
2023-02-08T03:43:08.824Z,6.83
2023-02-08T03:45:43.052Z,11.00
2023-02-08T03:48:15.363Z,7.80
2023-02-08T03:50:50.217Z,8.87
2023-02-08T03:53:22.265Z,8.93
2023-02-08T03:55:55.902Z,8.17
2023-02-08T03:58:30.190Z,11.77
2023-02-08T04:01:04.897Z,9.57
2023-02-08T04:03:34.957Z,10.27
2023-02-08T04:06:04.693Z,9.77
2023-02-08T04:08:33.029Z,14.97
2023-02-08T04:11:01.226Z,9.70
2023-02-08T04:13:29.274Z,9.53
2023-02-08T04:15:57.806Z,12.07
2023-02-08T04:18:25.798Z,10.40
2023-02-08T04:20:53.856Z,11.23
2023-02-08T04:23:23.240Z,11.27
2023-02-08T04:25:51.344Z,6.97
2023-02-08T04:28:19.861Z,7.27
2023-02-08T04:30:48.128Z,9.70
2023-02-08T04:33:16.543Z,10.03
2023-02-08T04:35:44.936Z,11.33
2023-02-08T04:38:12.906Z,9.70
2023-02-08T04:40:42.542Z,7.03
2023-02-08T04:43:10.668Z,13.83
2023-02-08T04:45:38.767Z,14.97
2023-02-08T04:48:07.376Z,14.30
2023-02-08T04:50:36.061Z,9.80
2023-02-08T04:53:04.483Z,12.60
2023-02-08T04:55:32.585Z,10.30
2023-02-08T04:58:02.055Z,9.23
2023-02-08T05:00:30.242Z,9.07
2023-02-08T05:02:59.922Z,8.77
2023-02-08T05:05:28.505Z,7.73
2023-02-08T05:07:56.642Z,38.17
2023-02-08T05:10:24.891Z,25.60
2023-02-08T05:12:53.082Z,18.90
2023-02-08T05:15:22.869Z,20.80
2023-02-08T05:17:52.038Z,13.10
2023-02-08T05:20:21.504Z,19.53
2023-02-08T05:22:49.544Z,16.20
2023-02-08T05:25:18.038Z,19.60
2023-02-08T05:27:46.170Z,14.97
2023-02-08T05:30:14.740Z,16.40
2023-02-08T05:32:44.147Z,12.70
2023-02-08T05:35:12.156Z,20.57
2023-02-08T05:37:40.175Z,24.83
2023-02-08T05:40:10.414Z,20.20
2023-02-08T05:42:38.577Z,14.70
2023-02-08T05:45:07.721Z,12.73
2023-02-08T05:47:35.730Z,12.90
2023-02-08T05:50:06.390Z,14.27
2023-02-08T05:52:34.481Z,12.03
2023-02-08T05:55:02.519Z,10.77
2023-02-08T05:57:31.928Z,14.87
2023-02-08T06:00:00.752Z,10.00
2023-02-08T06:02:28.794Z,12.87
2023-02-08T06:04:56.936Z,8.97
2023-02-08T06:07:26.448Z,10.83
2023-02-08T06:09:54.524Z,11.77
2023-02-08T06:12:22.515Z,10.17
2023-02-08T06:14:50.505Z,11.50
2023-02-08T06:17:18.493Z,12.63
2023-02-08T06:19:46.522Z,9.37
2023-02-08T06:22:14.617Z,9.47
2023-02-08T06:24:44.014Z,8.93
2023-02-08T06:27:12.063Z,9.93
2023-02-08T06:29:40.129Z,12.60
2023-02-08T06:32:08.257Z,11.03
2023-02-08T06:34:36.313Z,11.13
2023-02-08T06:37:05.673Z,8.60
2023-02-08T06:39:34.081Z,10.17
2023-02-08T06:42:03.604Z,8.90
2023-02-08T06:44:31.942Z,13.77
2023-02-08T06:47:00.064Z,9.43
2023-02-08T06:49:28.284Z,10.00
2023-02-08T06:51:56.564Z,11.00
2023-02-08T06:54:24.612Z,17.17
2023-02-08T06:56:54.517Z,10.63
2023-02-08T06:59:24.080Z,12.77
2023-02-08T07:01:52.063Z,10.07
2023-02-08T07:04:20.034Z,9.90
2023-02-08T07:06:49.860Z,13.63
2023-02-08T07:09:18.842Z,10.13
2023-02-08T07:11:46.944Z,14.20
2023-02-08T07:14:16.146Z,11.17
2023-02-08T07:16:45.642Z,9.77
2023-02-08T07:19:13.869Z,10.53
2023-02-08T07:21:41.870Z,12.47
2023-02-08T07:24:10.065Z,11.17
2023-02-08T07:26:38.140Z,13.87
2023-02-08T07:29:06.584Z,12.70
2023-02-08T07:31:34.682Z,15.10
2023-02-08T07:34:04.195Z,15.20
2023-02-08T07:36:32.225Z,14.67
2023-02-08T07:39:00.197Z,12.40
2023-02-08T07:41:28.176Z,16.10
2023-02-08T07:43:56.239Z,17.73
2023-02-08T07:46:24.385Z,14.20
2023-02-08T07:48:53.504Z,16.63
2023-02-08T07:51:23.195Z,13.17
2023-02-08T07:53:51.845Z,14.50
2023-02-08T07:56:20.315Z,14.77
2023-02-08T07:58:48.333Z,16.17
2023-02-08T08:01:22.207Z,15.00
2023-02-08T08:03:51.322Z,13.13
2023-02-08T08:06:20.033Z,12.73
2023-02-08T08:08:49.898Z,15.27
2023-02-08T08:11:20.007Z,11.67
2023-02-08T08:13:48.384Z,12.23
2023-02-08T08:16:16.738Z,23.30
2023-02-08T08:18:44.879Z,13.60
2023-02-08T08:21:13.763Z,11.90
2023-02-08T08:23:41.879Z,14.23
2023-02-08T08:26:15.064Z,12.20
2023-02-08T08:28:43.788Z,10.10
2023-02-08T08:31:13.028Z,15.63
2023-02-08T08:33:41.268Z,11.33
2023-02-08T08:36:10.335Z,11.87
2023-02-08T08:38:38.826Z,10.50
2023-02-08T08:41:11.925Z,16.30
2023-02-08T08:43:40.082Z,15.00
2023-02-08T08:46:09.025Z,13.47
2023-02-08T08:48:39.376Z,15.27
2023-02-08T08:51:08.656Z,12.90
2023-02-08T08:53:37.068Z,13.67
2023-02-08T08:56:06.419Z,10.40
2023-02-08T08:58:35.878Z,13.53
2023-02-08T09:01:04.154Z,11.93
2023-02-08T09:03:32.219Z,17.60
2023-02-08T09:06:00.244Z,14.07
2023-02-08T09:08:29.211Z,14.30
2023-02-08T09:10:57.263Z,13.07
2023-02-08T09:13:25.567Z,10.83
2023-02-08T09:15:55.092Z,11.03
2023-02-08T09:18:23.121Z,12.83
2023-02-08T09:20:51.149Z,12.73
2023-02-08T09:23:19.207Z,14.77
2023-02-08T09:25:49.112Z,12.50
2023-02-08T09:28:18.190Z,13.10
2023-02-08T09:30:49.916Z,11.57
2023-02-08T09:33:19.328Z,13.90
2023-02-08T09:35:49.534Z,13.17
2023-02-08T09:38:17.608Z,13.20
2023-02-08T09:41:03.108Z,13.50
2023-02-08T09:43:43.338Z,14.07
2023-02-08T09:46:17.606Z,15.13
2023-02-08T09:48:49.127Z,12.90
2023-02-08T09:51:29.038Z,11.60
2023-02-08T09:54:04.644Z,14.77
2023-02-08T09:56:40.166Z,13.00
2023-02-08T09:59:17.701Z,13.13
2023-02-08T10:01:47.361Z,11.97
2023-02-08T10:04:26.459Z,14.17
2023-02-08T10:06:54.700Z,12.97
2023-02-08T10:09:27.875Z,10.20
2023-02-08T10:12:12.253Z,13.23
2023-02-08T10:15:00.980Z,11.70
2023-02-08T10:17:53.202Z,10.73
2023-02-08T10:20:39.064Z,13.60
2023-02-08T10:23:28.728Z,13.33
2023-02-08T10:26:11.051Z,12.53
2023-02-08T10:28:58.721Z,13.63
2023-02-08T10:31:43.106Z,14.40
2023-02-08T10:34:21.313Z,13.67
2023-02-08T10:36:50.823Z,10.33
2023-02-08T10:39:25.234Z,12.30
2023-02-08T10:41:54.002Z,13.23
2023-02-08T10:44:30.930Z,10.57
2023-02-08T10:47:14.173Z,12.13
2023-02-08T10:49:51.483Z,11.73
2023-02-08T10:52:21.111Z,12.37
2023-02-08T10:54:49.154Z,13.03
2023-02-08T10:57:23.661Z,11.43
2023-02-08T10:59:55.768Z,11.97
2023-02-08T11:02:26.750Z,11.97
2023-02-08T11:05:04.184Z,14.40
2023-02-08T11:07:36.512Z,13.00
2023-02-08T11:10:26.431Z,13.73
2023-02-08T11:13:00.577Z,14.90
2023-02-08T11:15:34.956Z,13.43
2023-02-08T11:18:05.089Z,16.33
2023-02-08T11:20:37.768Z,12.90
2023-02-08T11:23:23.392Z,13.33
2023-02-08T11:25:52.378Z,15.47
2023-02-08T11:28:31.460Z,17.17
2023-02-08T11:31:03.226Z,11.40
2023-02-08T11:33:31.708Z,17.47
2023-02-08T11:36:07.445Z,13.93
2023-02-08T11:38:42.334Z,17.43
2023-02-08T11:41:18.948Z,13.13
2023-02-08T11:44:00.474Z,11.57
2023-02-08T11:46:30.764Z,14.20
2023-02-08T11:48:58.932Z,11.37
2023-02-08T11:51:32.037Z,13.13
2023-02-08T11:54:02.345Z,11.50
2023-02-08T11:56:33.303Z,10.97
2023-02-08T11:59:18.221Z,13.73
2023-02-08T12:01:46.632Z,15.57
2023-02-08T12:04:17.964Z,12.47
2023-02-08T12:07:22.013Z,8.57
2023-02-08T12:10:29.131Z,11.87
2023-02-08T12:13:18.235Z,11.33
2023-02-08T12:16:01.828Z,15.93
2023-02-08T12:19:06.600Z,11.50
2023-02-08T12:21:43.083Z,13.63
2023-02-08T12:24:20.924Z,10.80
2023-02-08T12:27:16.974Z,11.73
2023-02-08T12:29:52.794Z,13.00
2023-02-08T12:32:38.627Z,11.67
2023-02-08T12:35:45.579Z,11.87
2023-02-08T12:38:49.625Z,10.40
2023-02-08T12:41:26.561Z,9.43
2023-02-08T12:44:07.992Z,15.17
2023-02-08T12:46:52.868Z,11.80
2023-02-08T12:49:58.573Z,11.63
2023-02-08T12:52:38.025Z,12.17
2023-02-08T12:55:19.346Z,9.07
2023-02-08T12:57:53.943Z,15.00
2023-02-08T13:00:29.129Z,12.50
2023-02-08T13:03:06.978Z,14.67
2023-02-08T13:05:42.900Z,16.37
2023-02-08T13:08:33.117Z,14.57
2023-02-08T13:11:19.029Z,9.60
2023-02-08T13:13:57.939Z,12.87
2023-02-08T13:16:34.686Z,7.70
2023-02-08T13:19:22.867Z,13.13
2023-02-08T13:21:54.106Z,9.57
2023-02-08T13:24:34.171Z,8.20
2023-02-08T13:27:02.350Z,8.20
2023-02-08T13:29:33.125Z,9.23
2023-02-08T13:32:09.175Z,9.70
2023-02-08T13:34:42.109Z,7.27
2023-02-08T13:37:25.729Z,7.50
2023-02-08T13:40:03.238Z,6.63
2023-02-08T13:42:39.579Z,8.07
2023-02-08T13:45:10.737Z,7.67
2023-02-08T13:47:47.047Z,8.77
2023-02-08T13:50:50.608Z,15.13
2023-02-08T13:53:39.982Z,9.97
2023-02-08T13:56:11.667Z,6.67
2023-02-08T13:59:01.244Z,8.23
2023-02-08T14:01:30.608Z,9.03
2023-02-08T14:04:36.347Z,5.83
2023-02-08T14:07:20.783Z,10.77
2023-02-08T14:10:10.069Z,7.33
2023-02-08T14:12:46.864Z,9.80
2023-02-08T14:15:43.404Z,8.33
2023-02-08T14:18:26.595Z,7.97
2023-02-08T14:21:04.482Z,10.07
2023-02-08T14:23:40.225Z,7.97
2023-02-08T14:26:20.682Z,8.37
2023-02-08T14:28:55.393Z,6.90
2023-02-08T14:31:24.060Z,6.97
2023-02-08T14:33:55.996Z,7.50
2023-02-08T14:36:30.964Z,6.30
2023-02-08T14:39:28.965Z,6.47
2023-02-08T14:42:01.509Z,10.30
2023-02-08T14:45:06.143Z,12.80
2023-02-08T14:48:21.013Z,11.33
2023-02-08T14:51:00.203Z,5.80
2023-02-08T14:53:41.299Z,8.33
2023-02-08T14:56:20.441Z,9.33
2023-02-08T14:59:16.904Z,8.57
2023-02-08T15:01:48.587Z,7.07
2023-02-08T15:04:19.096Z,7.87
2023-02-08T15:07:20.756Z,7.50
2023-02-08T15:09:50.380Z,8.27
2023-02-08T15:12:27.563Z,7.97
2023-02-08T15:14:59.108Z,8.50
2023-02-08T15:17:35.234Z,8.23
2023-02-08T15:20:18.050Z,9.23
2023-02-08T15:22:46.471Z,10.83
2023-02-08T15:25:29.901Z,9.57
2023-02-08T15:28:00.642Z,8.40
2023-02-08T15:30:35.544Z,10.63
2023-02-08T15:33:13.682Z,6.87
2023-02-08T15:35:44.440Z,7.43
2023-02-08T15:38:19.832Z,9.23
2023-02-08T15:41:07.243Z,7.63
2023-02-08T15:43:36.781Z,19.13
2023-02-08T15:46:07.745Z,12.03
2023-02-08T15:48:39.550Z,9.20
2023-02-08T15:51:11.358Z,10.67
2023-02-08T15:53:42.785Z,9.73
2023-02-08T15:56:30.435Z,8.67
2023-02-08T15:59:05.335Z,12.73
2023-02-08T16:01:34.395Z,12.50
2023-02-08T16:04:08.315Z,10.83
2023-02-08T16:06:45.882Z,10.00
2023-02-08T16:09:19.951Z,11.10
2023-02-08T16:11:51.064Z,9.07
2023-02-08T16:14:27.873Z,7.90
2023-02-08T16:16:59.420Z,8.63
2023-02-08T16:19:29.909Z,9.90
2023-02-08T16:22:26.798Z,18.57
2023-02-08T16:24:55.863Z,13.00
2023-02-08T16:27:28.313Z,21.07
2023-02-08T16:29:56.703Z,24.33
2023-02-08T16:32:30.066Z,19.33
2023-02-08T16:34:58.403Z,11.93
2023-02-08T16:37:31.001Z,13.90
2023-02-08T16:40:03.392Z,12.50
2023-02-08T16:42:35.759Z,12.07
2023-02-08T16:45:24.788Z,13.60
2023-02-08T16:47:56.741Z,9.77
2023-02-08T16:50:27.236Z,16.00
2023-02-08T16:53:01.353Z,16.73
2023-02-08T16:55:33.796Z,14.87
2023-02-08T16:58:02.084Z,12.63
2023-02-08T17:00:32.913Z,12.77
2023-02-08T17:03:01.365Z,16.83
2023-02-08T17:05:32.427Z,16.30
2023-02-08T17:08:04.081Z,12.13
2023-02-08T17:10:34.016Z,15.53
2023-02-08T17:13:19.306Z,13.47
2023-02-08T17:15:50.414Z,18.33
2023-02-08T17:18:19.108Z,22.57
2023-02-08T17:20:48.344Z,28.53
2023-02-08T17:23:18.142Z,24.53
2023-02-08T17:25:46.659Z,26.47
2023-02-08T17:28:19.518Z,24.37
2023-02-08T17:30:50.069Z,22.83
2023-02-08T17:33:20.886Z,25.10
2023-02-08T17:35:51.017Z,20.53
2023-02-08T17:38:21.904Z,20.00
2023-02-08T17:40:50.028Z,19.47
2023-02-08T17:43:18.976Z,15.37
2023-02-08T17:45:47.466Z,21.70
2023-02-08T17:48:15.881Z,19.57
2023-02-08T17:50:50.760Z,17.87
2023-02-08T17:53:21.034Z,23.30
2023-02-08T17:55:49.778Z,13.40
2023-02-08T17:58:18.350Z,17.23
2023-02-08T18:00:47.111Z,14.13
2023-02-08T18:03:17.230Z,17.93
2023-02-08T18:05:45.993Z,15.60
2023-02-08T18:08:14.635Z,15.80
2023-02-08T18:10:44.497Z,14.80
2023-02-08T18:13:13.357Z,17.03
2023-02-08T18:15:42.355Z,21.47
2023-02-08T18:18:10.849Z,16.90
2023-02-08T18:20:43.363Z,17.30
2023-02-08T18:23:11.376Z,17.30
2023-02-08T18:25:40.979Z,16.47
2023-02-08T18:28:14.569Z,15.83
2023-02-08T18:30:43.919Z,15.50
2023-02-08T18:33:13.760Z,14.83
2023-02-08T18:35:42.711Z,17.17
2023-02-08T18:38:11.242Z,14.47
2023-02-08T18:40:41.571Z,20.43
2023-02-08T18:43:11.649Z,14.10
2023-02-08T18:45:40.039Z,13.03
2023-02-08T18:48:08.302Z,16.17
2023-02-08T18:50:37.167Z,18.93
2023-02-08T18:53:06.806Z,16.03
2023-02-08T18:55:35.199Z,15.70
2023-02-08T18:58:04.327Z,17.20
2023-02-08T19:00:34.097Z,16.17
2023-02-08T19:03:09.776Z,14.90
2023-02-08T19:05:39.018Z,17.57
2023-02-08T19:08:11.363Z,17.23
2023-02-08T19:10:41.204Z,15.10
2023-02-08T19:13:09.680Z,15.43
2023-02-08T19:15:43.293Z,19.47
2023-02-08T19:18:11.761Z,18.90
2023-02-08T19:20:40.207Z,20.13
2023-02-08T19:23:08.667Z,15.43
2023-02-08T19:25:39.691Z,20.07
2023-02-08T19:28:08.688Z,14.60
2023-02-08T19:30:37.218Z,14.40
2023-02-08T19:33:06.879Z,16.53
2023-02-08T19:35:39.179Z,16.93
2023-02-08T19:38:09.145Z,16.17
2023-02-08T19:40:37.495Z,14.90
2023-02-08T19:43:05.773Z,17.67
2023-02-08T19:45:36.222Z,16.50
2023-02-08T19:48:06.843Z,16.90
2023-02-08T19:50:35.987Z,18.20
2023-02-08T19:53:04.429Z,16.63
2023-02-08T19:55:32.781Z,18.77
2023-02-08T19:58:01.046Z,19.50
2023-02-08T20:00:29.340Z,17.70
2023-02-08T20:02:57.585Z,19.63
2023-02-08T20:05:27.293Z,15.57
2023-02-08T20:07:55.789Z,19.50
2023-02-08T20:10:24.084Z,15.27
2023-02-08T20:12:53.361Z,15.97
2023-02-08T20:15:21.794Z,17.07
2023-02-08T20:17:50.110Z,19.17
2023-02-08T20:20:19.660Z,20.13
2023-02-08T20:22:49.014Z,17.20
2023-02-08T20:25:17.405Z,18.70
2023-02-08T20:27:45.661Z,18.43
2023-02-08T20:30:17.192Z,18.07
2023-02-08T20:32:47.149Z,18.03
2023-02-08T20:35:15.743Z,20.37
2023-02-08T20:37:44.698Z,18.60
2023-02-08T20:40:16.028Z,21.43
2023-02-08T20:42:44.658Z,26.93
2023-02-08T20:45:14.530Z,30.17
2023-02-08T20:47:46.762Z,21.53
2023-02-08T20:50:19.080Z,19.17
2023-02-08T20:52:48.917Z,20.97
2023-02-08T20:55:18.637Z,24.40
2023-02-08T20:57:46.655Z,19.37
2023-02-08T21:00:16.170Z,19.77
2023-02-08T21:02:44.378Z,22.03
2023-02-08T21:05:12.393Z,20.63
2023-02-08T21:07:41.023Z,20.87
2023-02-08T21:10:09.845Z,16.40
2023-02-08T21:12:39.407Z,22.53
2023-02-08T21:15:10.324Z,18.53
2023-02-08T21:17:40.842Z,23.00
2023-02-08T21:20:11.957Z,20.03
2023-02-08T21:22:40.072Z,19.50
2023-02-08T21:25:09.333Z,23.43
2023-02-08T21:27:39.080Z,20.37
2023-02-08T21:30:10.049Z,20.17
2023-02-08T21:32:38.268Z,19.67
2023-02-08T21:35:07.581Z,17.43
2023-02-08T21:37:35.951Z,16.60
2023-02-08T21:40:04.372Z,17.17
2023-02-08T21:42:33.859Z,22.77
2023-02-08T21:45:03.411Z,20.37
2023-02-08T21:47:31.592Z,19.87
2023-02-08T21:50:17.257Z,19.53
2023-02-08T21:53:02.856Z,18.90
2023-02-08T21:55:31.926Z,19.53
2023-02-08T21:58:00.333Z,21.47
2023-02-08T22:00:30.318Z,21.03
2023-02-08T22:02:58.557Z,22.20
2023-02-08T22:05:44.447Z,19.33
2023-02-08T22:08:14.277Z,19.50
2023-02-08T22:10:50.182Z,22.03
2023-02-08T22:13:24.994Z,15.40
2023-02-08T22:15:54.760Z,15.50
2023-02-08T22:18:23.055Z,18.83
2023-02-08T22:20:52.735Z,15.20
2023-02-08T22:23:21.275Z,17.40
2023-02-08T22:25:49.495Z,18.87
2023-02-08T22:28:17.768Z,21.40
2023-02-08T22:30:49.227Z,17.53
2023-02-08T22:33:18.930Z,21.10
2023-02-08T22:35:47.110Z,17.80
2023-02-08T22:38:15.276Z,18.03
2023-02-08T22:40:43.909Z,15.53
2023-02-08T22:43:12.367Z,17.00
2023-02-08T22:45:42.368Z,17.63
2023-02-08T22:48:10.943Z,15.17
2023-02-08T22:50:40.529Z,16.87
2023-02-08T22:53:08.771Z,15.87
2023-02-08T22:55:36.994Z,20.17
2023-02-08T22:58:05.232Z,15.23
2023-02-08T23:00:33.544Z,19.93
2023-02-08T23:03:01.888Z,19.70
2023-02-08T23:05:30.128Z,16.07
2023-02-08T23:07:59.696Z,15.70
2023-02-08T23:10:27.946Z,15.87
2023-02-08T23:12:56.197Z,16.60
2023-02-08T23:15:24.498Z,13.77
2023-02-08T23:17:52.961Z,15.80
2023-02-08T23:20:21.373Z,16.53
2023-02-08T23:22:49.594Z,17.10
2023-02-08T23:25:20.039Z,14.57
2023-02-08T23:27:48.720Z,15.00
2023-02-08T23:30:17.244Z,16.77
2023-02-08T23:32:45.564Z,14.93
2023-02-08T23:35:13.844Z,14.60
2023-02-08T23:37:42.143Z,15.50
2023-02-08T23:40:12.044Z,13.63
2023-02-08T23:42:41.728Z,13.57
2023-02-08T23:45:11.242Z,14.50
2023-02-08T23:47:40.349Z,15.63
2023-02-08T23:50:11.093Z,16.67
2023-02-08T23:52:39.427Z,15.40
2023-02-08T23:55:10.016Z,14.37
2023-02-08T23:57:39.439Z,17.20
